createdAt,value
2018-07-19T00:00:47.992Z,80.9765
2018-07-19T00:01:53.457Z,81.4812
2018-07-19T00:02:58.929Z,80.7255
2018-07-19T00:04:06.769Z,81.2275
2018-07-19T00:05:14.754Z,81.2275
2018-07-19T00:06:21.746Z,80.4745
2018-07-19T00:07:27.014Z,80.2208
2018-07-19T00:08:31.876Z,80.7255
2018-07-19T00:09:39.631Z,81.4812
2018-07-19T00:10:46.416Z,80.9765
2018-07-19T00:11:51.883Z,81.4812
2018-07-19T00:12:57.561Z,80.9765
2018-07-19T00:14:03.540Z,81.2275
2018-07-19T00:15:10.015Z,80.9765
2018-07-19T00:16:17.244Z,81.4812
2018-07-19T00:17:22.387Z,80.9765
2018-07-19T00:18:28.375Z,80.9765
2018-07-19T00:19:35.037Z,80.9765
2018-07-19T00:20:42.938Z,80.9765
2018-07-19T00:21:49.955Z,80.9765
2018-07-19T00:22:54.885Z,80.9765
2018-07-19T00:23:59.729Z,81.4812
2018-07-19T00:25:06.707Z,81.4812
2018-07-19T00:26:14.094Z,79.9698
2018-07-19T00:27:20.752Z,80.7255
2018-07-19T00:28:26.586Z,80.9765
2018-07-19T00:29:32.091Z,80.7255
2018-07-19T00:30:37.517Z,80.4745
2018-07-19T00:31:43.530Z,80.4745
2018-07-19T00:32:49.688Z,79.9698
2018-07-19T00:33:55.816Z,80.7255
2018-07-19T00:35:01.522Z,80.4745
2018-07-19T00:36:08.336Z,80.4745
2018-07-19T00:37:15.411Z,80.9765
2018-07-19T00:38:21.311Z,79.8033
2018-07-19T00:39:41.692Z,81.4812
2018-07-19T00:40:46.932Z,81.2275
2018-07-19T00:41:52.092Z,80.7255
2018-07-19T00:42:58.399Z,79.9698
2018-07-19T00:44:05.407Z,81.2275
2018-07-19T00:45:10.924Z,80.4745
2018-07-19T00:46:16.163Z,80.7255
2018-07-19T00:47:21.020Z,80.9765
2018-07-19T00:48:41.413Z,81.4812
2018-07-19T00:49:46.978Z,81.2275
2018-07-19T00:50:53.595Z,81.2275
2018-07-19T00:52:00.984Z,80.2208
2018-07-19T00:53:06.492Z,81.4812
2018-07-19T00:54:11.746Z,80.9765
2018-07-19T00:55:17.427Z,80.4745
2018-07-19T00:56:23.531Z,80.7255
2018-07-19T00:57:31.029Z,80.9765
2018-07-19T00:58:36.318Z,79.8033
2018-07-19T00:59:41.538Z,80.7255
2018-07-19T01:00:46.944Z,81.2275
2018-07-19T01:01:53.409Z,80.7255
2018-07-19T01:02:59.921Z,81.2275
2018-07-19T01:04:06.911Z,81.2275
2018-07-19T01:05:11.842Z,81.4812
2018-07-19T01:06:16.438Z,81.4812
2018-07-19T01:07:23.551Z,81.4812
2018-07-19T01:08:31.114Z,81.2275
2018-07-19T01:09:38.295Z,80.9765
2018-07-19T01:10:43.787Z,81.4812
2018-07-19T01:11:49.008Z,80.9765
2018-07-19T01:12:56.003Z,80.7255
2018-07-19T01:14:02.385Z,80.9765
2018-07-19T01:15:07.012Z,80.4745
2018-07-19T01:16:12.456Z,81.4812
2018-07-19T01:17:19.602Z,81.7322
2018-07-19T01:18:28.094Z,81.2275
2018-07-19T01:19:34.833Z,80.2208
2018-07-19T01:20:40.472Z,80.7255
2018-07-19T01:21:45.875Z,79.9698
2018-07-19T01:22:53.445Z,80.4745
2018-07-19T01:24:00.533Z,80.4745
2018-07-19T01:25:05.648Z,80.9765
2018-07-19T01:26:12.614Z,81.2275
2018-07-19T01:27:19.214Z,80.7255
2018-07-19T01:28:26.480Z,81.4812
2018-07-19T01:29:31.480Z,81.4812
2018-07-19T01:30:37.358Z,81.7322
2018-07-19T01:31:42.566Z,81.2275
2018-07-19T01:32:50.057Z,81.9832
2018-07-19T01:33:56.906Z,81.7322
2018-07-19T01:35:01.847Z,81.4812
2018-07-19T01:36:06.723Z,81.4812
2018-07-19T01:37:11.907Z,80.9765
2018-07-19T01:38:17.341Z,81.2275
2018-07-19T01:39:24.637Z,81.2275
2018-07-19T01:40:30.409Z,81.2275
2018-07-19T01:41:37.355Z,81.7322
2018-07-19T01:42:42.622Z,81.2275
2018-07-19T01:43:49.470Z,81.4812
2018-07-19T01:44:56.599Z,81.4812
2018-07-19T01:46:02.707Z,81.2275
2018-07-19T01:47:07.852Z,81.4812
2018-07-19T01:48:15.122Z,81.2275
2018-07-19T01:49:22.959Z,81.4812
2018-07-19T01:50:29.417Z,80.9765
2018-07-19T01:51:34.437Z,82.2343
2018-07-19T01:52:40.907Z,81.7322
2018-07-19T01:53:47.297Z,81.4812
2018-07-19T01:54:54.269Z,81.4812
2018-07-19T01:55:59.421Z,81.2275
2018-07-19T01:57:05.070Z,80.9765
2018-07-19T01:58:12.488Z,80.7255
2018-07-19T01:59:18.859Z,80.4745
2018-07-19T02:00:24.331Z,80.9765
2018-07-19T02:01:44.656Z,80.4745
2018-07-19T02:02:50.353Z,80.2208
2018-07-19T02:03:56.977Z,80.4745
2018-07-19T02:05:02.455Z,80.7255
2018-07-19T02:06:07.592Z,80.9765
2018-07-19T02:07:15.782Z,81.2275
2018-07-19T02:08:23.111Z,80.9765
2018-07-19T02:09:28.886Z,79.9698
2018-07-19T02:10:34.316Z,80.2208
2018-07-19T02:11:40.336Z,79.9698
2018-07-19T02:12:48.256Z,79.9698
2018-07-19T02:13:54.227Z,80.9765
2018-07-19T02:14:59.497Z,80.4745
2018-07-19T02:16:04.619Z,80.4745
2018-07-19T02:17:12.363Z,80.7255
2018-07-19T02:18:19.586Z,80.2208
2018-07-19T02:19:24.851Z,80.2208
2018-07-19T02:20:30.105Z,79.9698
2018-07-19T02:21:37.003Z,80.2208
2018-07-19T02:22:43.380Z,79.8033
2018-07-19T02:23:48.525Z,79.0476
2018-07-19T02:24:53.646Z,79.0476
2018-07-19T02:26:00.576Z,79.8033
2018-07-19T02:27:06.303Z,79.0476
2018-07-19T02:28:11.461Z,79.0476
2018-07-19T02:29:16.919Z,79.2986
2018-07-19T02:30:23.332Z,79.0476
2018-07-19T02:31:30.116Z,78.7966
2018-07-19T02:32:35.258Z,79.5497
2018-07-19T02:33:41.770Z,79.0476
2018-07-19T02:34:48.733Z,79.5497
2018-07-19T02:35:55.447Z,79.8033
2018-07-19T02:37:00.911Z,79.8033
2018-07-19T02:38:05.782Z,79.0476
2018-07-19T02:39:13.242Z,79.2986
2018-07-19T02:40:20.447Z,79.0476
2018-07-19T02:41:25.051Z,78.2919
2018-07-19T02:42:30.779Z,79.5497
2018-07-19T02:43:36.770Z,79.0476
2018-07-19T02:44:43.836Z,79.0476
2018-07-19T02:45:49.226Z,79.8033
2018-07-19T02:46:54.078Z,79.5497
2018-07-19T02:48:01.069Z,79.2986
2018-07-19T02:49:08.425Z,79.2986
2018-07-19T02:50:14.508Z,79.8033
2018-07-19T02:51:19.970Z,79.0476
2018-07-19T02:52:27.053Z,79.2986
2018-07-19T02:53:34.002Z,78.5456
2018-07-19T02:54:40.863Z,79.0476
2018-07-19T02:55:46.293Z,78.2919
2018-07-19T02:56:52.319Z,78.7966
2018-07-19T02:57:58.672Z,79.2986
2018-07-19T02:59:04.494Z,78.0409
2018-07-19T03:00:09.655Z,79.2986
2018-07-19T03:01:15.088Z,78.5456
2018-07-19T03:02:22.777Z,78.0409
2018-07-19T03:03:31.168Z,78.0409
2018-07-19T03:04:37.128Z,78.0409
2018-07-19T03:05:42.561Z,78.5456
2018-07-19T03:06:48.097Z,78.5456
2018-07-19T03:07:55.572Z,78.2919
2018-07-19T03:09:02.381Z,78.5456
2018-07-19T03:10:06.931Z,78.5456
2018-07-19T03:11:12.387Z,78.5456
2018-07-19T03:12:19.755Z,78.7966
2018-07-19T03:13:27.212Z,78.5456
2018-07-19T03:14:32.188Z,78.2919
2018-07-19T03:15:37.688Z,79.2986
2018-07-19T03:16:43.957Z,78.2919
2018-07-19T03:17:50.869Z,78.0409
2018-07-19T03:18:56.169Z,78.0409
2018-07-19T03:20:01.309Z,79.2986
2018-07-19T03:21:07.081Z,77.7899
2018-07-19T03:22:13.892Z,78.2919
2018-07-19T03:23:19.459Z,78.5456
2018-07-19T03:24:26.550Z,78.5456
2018-07-19T03:25:33.211Z,78.7966
2018-07-19T03:26:40.640Z,78.0409
2018-07-19T03:27:47.082Z,78.2919
2018-07-19T03:28:52.230Z,78.5456
2018-07-19T03:29:57.095Z,78.2919
2018-07-19T03:31:04.724Z,78.7966
2018-07-19T03:32:11.115Z,78.5456
2018-07-19T03:33:16.602Z,78.2919
2018-07-19T03:34:21.735Z,78.2919
2018-07-19T03:35:28.206Z,77.7899
2018-07-19T03:36:34.607Z,78.7966
2018-07-19T03:37:39.543Z,78.7966
2018-07-19T03:38:44.685Z,79.2986
2018-07-19T03:39:52.441Z,79.2986
2018-07-19T03:40:58.804Z,78.7966
2018-07-19T03:42:02.936Z,79.2986
2018-07-19T03:43:08.465Z,79.2986
2018-07-19T03:44:15.109Z,79.0476
2018-07-19T03:45:21.369Z,79.5497
2018-07-19T03:46:27.051Z,79.8033
2018-07-19T03:47:32.754Z,79.8033
2018-07-19T03:48:39.964Z,79.8033
2018-07-19T03:49:46.818Z,78.7966
2018-07-19T03:50:51.976Z,79.0476
2018-07-19T03:51:57.466Z,79.5497
2018-07-19T03:53:02.685Z,78.5456
2018-07-19T03:54:08.145Z,79.5497
2018-07-19T03:55:13.033Z,79.2986
2018-07-19T03:56:20.133Z,79.5497
2018-07-19T03:57:27.290Z,79.0476
2018-07-19T03:58:34.027Z,78.7966
2018-07-19T03:59:39.219Z,79.2986
2018-07-19T04:00:44.871Z,78.0409
2018-07-19T04:01:51.804Z,78.7966
2018-07-19T04:02:57.950Z,79.2986
2018-07-19T04:04:03.870Z,79.5497
2018-07-19T04:05:09.491Z,79.8033
2018-07-19T04:06:16.801Z,78.2919
2018-07-19T04:07:22.889Z,78.7966
2018-07-19T04:08:28.084Z,79.2986
2018-07-19T04:09:33.939Z,78.7966
2018-07-19T04:10:41.387Z,78.2919
2018-07-19T04:11:47.382Z,78.2919
2018-07-19T04:12:52.683Z,78.2919
2018-07-19T04:13:57.920Z,78.5456
2018-07-19T04:15:03.365Z,78.2919
2018-07-19T04:16:09.200Z,79.0476
2018-07-19T04:17:15.969Z,78.7966
2018-07-19T04:18:21.400Z,78.5456
2018-07-19T04:19:26.879Z,78.7966
2018-07-19T04:20:34.370Z,79.8033
2018-07-19T04:21:42.045Z,79.2986
2018-07-19T04:22:48.276Z,79.0476
2018-07-19T04:23:53.477Z,77.6208
2018-07-19T04:24:59.389Z,78.6275
2018-07-19T04:26:06.332Z,79.0476
2018-07-19T04:27:12.328Z,78.8812
2018-07-19T04:28:17.747Z,78.1255
2018-07-19T04:29:23.285Z,79.0476
2018-07-19T04:30:28.827Z,78.8812
2018-07-19T04:31:35.450Z,78.6275
2018-07-19T04:32:41.343Z,79.1322
2018-07-19T04:33:46.495Z,79.1322
2018-07-19T04:34:51.990Z,79.5497
2018-07-19T04:35:59.593Z,78.1255
2018-07-19T04:37:07.407Z,79.3832
2018-07-19T04:38:14.346Z,78.3765
2018-07-19T04:39:20.042Z,78.3765
2018-07-19T04:40:25.719Z,79.1322
2018-07-19T04:41:33.229Z,78.3765
2018-07-19T04:42:40.176Z,78.3765
2018-07-19T04:43:45.709Z,79.3832
2018-07-19T04:44:50.850Z,79.3832
2018-07-19T04:45:56.524Z,78.8812
2018-07-19T04:47:03.943Z,78.8812
2018-07-19T04:48:10.904Z,78.6275
2018-07-19T04:49:16.622Z,79.3832
2018-07-19T04:50:21.864Z,78.1255
2018-07-19T04:51:41.604Z,79.8879
2018-07-19T04:52:46.878Z,78.6275
2018-07-19T04:53:53.668Z,78.8812
2018-07-19T04:54:58.898Z,79.1322
2018-07-19T04:56:03.761Z,78.8812
2018-07-19T04:57:10.331Z,78.6275
2018-07-19T04:58:16.964Z,78.8812
2018-07-19T04:59:22.565Z,78.3765
2018-07-19T05:00:27.879Z,79.1322
2018-07-19T05:01:35.236Z,78.8812
2018-07-19T05:02:41.558Z,79.3832
2018-07-19T05:03:48.292Z,78.1255
2018-07-19T05:04:53.750Z,78.3765
2018-07-19T05:05:58.699Z,78.6275
2018-07-19T05:07:05.562Z,79.3832
2018-07-19T05:08:13.636Z,78.6275
2018-07-19T05:09:19.387Z,78.3765
2018-07-19T05:10:24.793Z,78.3765
2018-07-19T05:11:29.970Z,78.3765
2018-07-19T05:12:37.274Z,78.6275
2018-07-19T05:13:44.292Z,79.1322
2018-07-19T05:14:49.115Z,78.3765
2018-07-19T05:15:54.639Z,78.6275
2018-07-19T05:17:00.680Z,78.6275
2018-07-19T05:18:08.394Z,78.3765
2018-07-19T05:19:14.302Z,78.8812
2018-07-19T05:20:19.779Z,78.3765
2018-07-19T05:21:26.091Z,78.3765
2018-07-19T05:22:31.344Z,78.8812
2018-07-19T05:23:38.646Z,78.8812
2018-07-19T05:24:45.529Z,78.6275
2018-07-19T05:25:50.799Z,77.9563
2018-07-19T05:26:55.670Z,77.7053
2018-07-19T05:28:02.127Z,77.7053
2018-07-19T05:29:08.336Z,78.21
2018-07-19T05:30:14.001Z,77.4543
2018-07-19T05:31:19.679Z,77.7053
2018-07-19T05:32:26.420Z,77.4543
2018-07-19T05:33:34.458Z,77.7053
2018-07-19T05:34:41.614Z,78.461
2018-07-19T05:35:46.970Z,77.9563
2018-07-19T05:36:52.429Z,78.712
2018-07-19T05:37:58.925Z,78.712
2018-07-19T05:39:04.080Z,77.9563
2018-07-19T05:40:09.590Z,78.21
2018-07-19T05:41:14.742Z,78.21
2018-07-19T05:42:20.400Z,77.4543
2018-07-19T05:43:27.581Z,78.712
2018-07-19T05:44:35.136Z,77.7053
2018-07-19T05:45:42.384Z,77.9563
2018-07-19T05:46:47.521Z,77.9563
2018-07-19T05:47:52.719Z,77.9563
2018-07-19T05:48:58.314Z,78.461
2018-07-19T05:50:06.199Z,77.7053
2018-07-19T05:51:12.181Z,77.7053
2018-07-19T05:52:17.365Z,77.9563
2018-07-19T05:53:22.697Z,78.712
2018-07-19T05:54:29.245Z,78.9631
2018-07-19T05:55:35.287Z,77.9563
2018-07-19T05:56:40.433Z,78.712
2018-07-19T05:57:45.822Z,78.712
2018-07-19T05:58:53.434Z,78.461
2018-07-19T06:00:00.626Z,78.712
2018-07-19T06:01:07.163Z,79.3832
2018-07-19T06:02:12.357Z,78.21
2018-07-19T06:03:19.690Z,78.712
2018-07-19T06:04:24.764Z,78.9631
2018-07-19T06:05:31.915Z,77.9563
2018-07-19T06:06:37.671Z,77.9563
2018-07-19T06:07:45.052Z,77.9563
2018-07-19T06:08:51.790Z,78.461
2018-07-19T06:09:58.675Z,77.9563
2018-07-19T06:11:03.260Z,78.461
2018-07-19T06:12:08.714Z,78.461
2018-07-19T06:13:14.447Z,78.21
2018-07-19T06:14:21.120Z,76.9523
2018-07-19T06:15:28.021Z,78.9631
2018-07-19T06:16:32.597Z,77.7053
2018-07-19T06:17:37.511Z,78.461
2018-07-19T06:18:43.812Z,78.461
2018-07-19T06:19:49.544Z,77.9563
2018-07-19T06:20:55.608Z,78.21
2018-07-19T06:22:02.318Z,78.461
2018-07-19T06:23:07.784Z,79.2141
2018-07-19T06:24:14.430Z,78.712
2018-07-19T06:25:21.376Z,78.461
2018-07-19T06:26:26.611Z,78.21
2018-07-19T06:27:32.784Z,79.6342
2018-07-19T06:28:40.454Z,78.712
2018-07-19T06:29:46.728Z,78.9631
2018-07-19T06:30:52.128Z,78.712
2018-07-19T06:31:58.450Z,79.2141
2018-07-19T06:33:03.048Z,78.461
2018-07-19T06:34:07.903Z,78.712
2018-07-19T06:35:12.828Z,78.9631
2018-07-19T06:36:19.350Z,79.4678
2018-07-19T06:37:26.559Z,78.712
2018-07-19T06:38:31.730Z,77.9563
2018-07-19T06:39:39.505Z,78.712
2018-07-19T06:40:44.947Z,78.461
2018-07-19T06:41:53.672Z,78.712
2018-07-19T06:42:59.368Z,78.712
2018-07-19T06:44:04.828Z,79.4678
2018-07-19T06:45:11.230Z,79.2141
2018-07-19T06:46:16.464Z,78.9631
2018-07-19T06:47:21.360Z,78.9631
2018-07-19T06:48:28.237Z,78.461
2018-07-19T06:49:36.222Z,78.712
2018-07-19T06:50:42.679Z,78.21
2018-07-19T06:51:48.222Z,78.461
2018-07-19T06:52:54.100Z,79.2141
2018-07-19T06:54:00.678Z,78.461
2018-07-19T06:55:06.811Z,79.2141
2018-07-19T06:56:12.337Z,78.461
2018-07-19T06:57:18.130Z,79.7188
2018-07-19T06:58:24.171Z,78.461
2018-07-19T06:59:31.475Z,78.9631
2018-07-19T07:00:36.974Z,77.9563
2018-07-19T07:01:41.567Z,79.4678
2018-07-19T07:02:49.095Z,77.7053
2018-07-19T07:03:54.229Z,78.21
2018-07-19T07:04:59.657Z,78.712
2018-07-19T07:06:05.229Z,78.461
2018-07-19T07:07:12.014Z,78.461
2018-07-19T07:08:18.819Z,77.9563
2018-07-19T07:09:23.969Z,78.712
2018-07-19T07:10:29.953Z,78.9631
2018-07-19T07:11:37.292Z,77.9563
2018-07-19T07:12:44.578Z,78.712
2018-07-19T07:13:50.028Z,78.712
2018-07-19T07:14:55.619Z,78.461
2018-07-19T07:16:03.753Z,78.21
2018-07-19T07:17:09.133Z,78.461
2018-07-19T07:18:14.627Z,77.9563
2018-07-19T07:19:19.823Z,77.7053
2018-07-19T07:20:26.436Z,78.9631
2018-07-19T07:21:32.019Z,79.2141
2018-07-19T07:22:37.245Z,78.461
2018-07-19T07:23:42.760Z,78.21
2018-07-19T07:24:50.130Z,77.9563
2018-07-19T07:25:56.993Z,77.7053
2018-07-19T07:27:01.865Z,78.712
2018-07-19T07:28:07.272Z,77.7053
2018-07-19T07:29:13.983Z,78.461
2018-07-19T07:30:20.924Z,78.461
2018-07-19T07:31:26.382Z,78.9631
2018-07-19T07:32:31.820Z,78.9631
2018-07-19T07:33:39.518Z,77.7053
2018-07-19T07:34:45.919Z,77.7053
2018-07-19T07:35:52.499Z,78.461
2018-07-19T07:36:57.945Z,78.712
2018-07-19T07:38:05.252Z,78.21
2018-07-19T07:39:11.125Z,78.21
2018-07-19T07:40:16.824Z,78.21
2018-07-19T07:41:23.515Z,77.7899
2018-07-19T07:42:29.110Z,78.461
2018-07-19T07:43:35.026Z,77.9563
2018-07-19T07:44:40.523Z,77.9563
2018-07-19T07:45:46.904Z,77.9563
2018-07-19T07:46:52.078Z,78.461
2018-07-19T07:47:56.977Z,77.5389
2018-07-19T07:49:02.390Z,77.2852
2018-07-19T07:50:07.749Z,78.21
2018-07-19T07:51:13.415Z,78.21
2018-07-19T07:52:20.585Z,77.5389
2018-07-19T07:53:26.083Z,77.9563
2018-07-19T07:54:31.608Z,77.5389
2018-07-19T07:55:39.643Z,76.7831
2018-07-19T07:56:46.322Z,77.9563
2018-07-19T07:57:52.244Z,77.9563
2018-07-19T07:58:57.429Z,77.2852
2018-07-19T08:00:03.262Z,77.9563
2018-07-19T08:01:10.379Z,77.2852
2018-07-19T08:02:17.353Z,76.5321
2018-07-19T08:03:22.509Z,77.9563
2018-07-19T08:04:27.659Z,77.9563
2018-07-19T08:05:34.963Z,76.7831
2018-07-19T08:06:42.338Z,77.2852
2018-07-19T08:07:47.496Z,77.2852
2018-07-19T08:08:52.832Z,77.0342
2018-07-19T08:10:00.514Z,77.7899
2018-07-19T08:11:06.067Z,77.7899
2018-07-19T08:12:11.633Z,77.5389
2018-07-19T08:13:18.358Z,77.9563
2018-07-19T08:14:24.696Z,77.0342
2018-07-19T08:15:30.373Z,77.2852
2018-07-19T08:16:35.568Z,77.0342
2018-07-19T08:17:41.830Z,77.2852
2018-07-19T08:18:48.284Z,77.2852
2018-07-19T08:19:53.467Z,77.7899
2018-07-19T08:20:58.446Z,76.5321
2018-07-19T08:22:03.482Z,77.2852
2018-07-19T08:23:10.596Z,78.0409
2018-07-19T08:24:15.777Z,77.2852
2018-07-19T08:25:21.512Z,76.7831
2018-07-19T08:26:27.447Z,77.0342
2018-07-19T08:27:33.693Z,76.2811
2018-07-19T08:28:39.473Z,77.2852
2018-07-19T08:29:45.025Z,78.0409
2018-07-19T08:30:51.976Z,77.0342
2018-07-19T08:31:58.867Z,77.5389
2018-07-19T08:33:04.549Z,77.5389
2018-07-19T08:34:10.229Z,77.5389
2018-07-19T08:35:16.648Z,77.5389
2018-07-19T08:36:24.079Z,77.2852
2018-07-19T08:37:30.350Z,77.7899
2018-07-19T08:38:35.560Z,77.5389
2018-07-19T08:39:40.942Z,77.2852
2018-07-19T08:40:48.244Z,76.7831
2018-07-19T08:41:54.374Z,78.21
2018-07-19T08:43:00.352Z,77.5389
2018-07-19T08:44:06.184Z,77.0342
2018-07-19T08:45:13.492Z,77.7899
2018-07-19T08:46:19.276Z,78.21
2018-07-19T08:47:24.707Z,78.461
2018-07-19T08:48:32.101Z,78.0409
2018-07-19T08:49:39.191Z,77.7899
2018-07-19T08:50:44.355Z,78.712
2018-07-19T08:51:49.743Z,78.461
2018-07-19T08:52:57.612Z,78.0409
2018-07-19T08:54:03.320Z,78.21
2018-07-19T08:55:09.060Z,78.21
2018-07-19T08:56:14.567Z,78.712
2018-07-19T08:57:21.249Z,78.461
2018-07-19T08:58:44.533Z,78.712
2018-07-19T08:59:51.503Z,78.712
2018-07-19T09:00:57.392Z,78.461
2018-07-19T09:02:02.541Z,78.0409
2018-07-19T09:03:08.846Z,79.2141
2018-07-19T09:04:15.277Z,78.461
2018-07-19T09:05:21.050Z,79.2141
2018-07-19T09:06:26.959Z,78.712
2018-07-19T09:07:33.882Z,78.712
2018-07-19T09:08:40.523Z,79.2141
2018-07-19T09:09:47.519Z,80.2208
2018-07-19T09:10:52.450Z,78.461
2018-07-19T09:11:58.015Z,79.4678
2018-07-19T09:13:04.734Z,79.7188
2018-07-19T09:14:10.094Z,79.4678
2018-07-19T09:15:15.371Z,79.2141
2018-07-19T09:16:20.523Z,78.9631
2018-07-19T09:17:25.958Z,78.712
2018-07-19T09:18:33.947Z,78.9631
2018-07-19T09:19:40.253Z,79.4678
2018-07-19T09:20:45.551Z,79.4678
2018-07-19T09:21:51.126Z,79.2141
2018-07-19T09:22:56.312Z,79.9698
2018-07-19T09:24:03.257Z,79.7188
2018-07-19T09:25:10.593Z,79.9698
2018-07-19T09:26:15.749Z,79.4678
2018-07-19T09:27:21.175Z,79.9698
2018-07-19T09:28:28.903Z,79.9698
2018-07-19T09:29:36.017Z,80.2208
2018-07-19T09:30:41.517Z,80.4745
2018-07-19T09:31:46.672Z,79.4678
2018-07-19T09:32:53.617Z,79.9698
2018-07-19T09:34:00.993Z,79.4678
2018-07-19T09:35:07.706Z,78.9631
2018-07-19T09:36:13.147Z,79.9698
2018-07-19T09:37:18.534Z,79.7188
2018-07-19T09:38:26.202Z,80.4745
2018-07-19T09:39:34.866Z,79.9698
2018-07-19T09:40:41.644Z,80.6409
2018-07-19T09:41:46.790Z,80.8946
2018-07-19T09:42:52.417Z,80.4745
2018-07-19T09:43:58.542Z,80.4745
2018-07-19T09:45:03.160Z,81.3966
2018-07-19T09:46:08.285Z,82.1523
2018-07-19T09:47:13.731Z,80.6409
2018-07-19T09:48:20.616Z,80.6409
2018-07-19T09:49:26.338Z,81.6477
2018-07-19T09:50:31.557Z,81.1456
2018-07-19T09:51:37.305Z,81.3966
2018-07-19T09:52:42.977Z,80.8946
2018-07-19T09:53:49.962Z,81.1456
2018-07-19T09:54:56.141Z,80.8946
2018-07-19T09:56:01.144Z,80.6409
2018-07-19T09:57:06.583Z,80.4745
2018-07-19T09:58:14.290Z,81.3966
2018-07-19T09:59:21.834Z,80.4745
2018-07-19T10:00:42.722Z,80.8946
2018-07-19T10:01:47.739Z,80.8946
2018-07-19T10:02:53.254Z,81.9013
2018-07-19T10:03:59.563Z,81.6477
2018-07-19T10:05:07.041Z,80.8946
2018-07-19T10:06:13.092Z,80.7255
2018-07-19T10:07:18.633Z,80.4745
2018-07-19T10:08:23.859Z,80.8946
2018-07-19T10:09:30.213Z,80.8946
2018-07-19T10:10:37.316Z,79.9698
2018-07-19T10:11:44.040Z,81.3966
2018-07-19T10:12:49.750Z,80.8946
2018-07-19T10:13:54.623Z,81.3966
2018-07-19T10:15:02.372Z,80.2208
2018-07-19T10:16:08.424Z,80.7255
2018-07-19T10:17:14.738Z,80.6409
2018-07-19T10:18:20.314Z,81.1456
2018-07-19T10:19:24.878Z,81.1456
2018-07-19T10:20:31.960Z,80.8946
2018-07-19T10:21:38.604Z,81.3966
2018-07-19T10:22:44.481Z,81.3966
2018-07-19T10:23:49.927Z,80.8946
2018-07-19T10:24:55.479Z,81.9013
2018-07-19T10:26:02.732Z,81.3966
2018-07-19T10:27:07.830Z,81.6477
2018-07-19T10:28:14.015Z,81.9013
2018-07-19T10:29:19.205Z,81.9013
2018-07-19T10:30:24.841Z,81.3966
2018-07-19T10:31:32.693Z,81.6477
2018-07-19T10:32:39.125Z,81.6477
2018-07-19T10:33:46.504Z,81.1456
2018-07-19T10:34:51.796Z,81.6477
2018-07-19T10:35:56.677Z,80.8946
2018-07-19T10:37:02.958Z,81.3966
2018-07-19T10:38:08.428Z,81.6477
2018-07-19T10:39:13.585Z,81.9013
2018-07-19T10:40:19.109Z,82.1523
2018-07-19T10:41:24.167Z,81.9013
2018-07-19T10:42:31.311Z,81.6477
2018-07-19T10:43:39.366Z,82.1523
2018-07-19T10:44:45.765Z,82.1523
2018-07-19T10:45:51.491Z,82.4034
2018-07-19T10:46:56.631Z,82.5698
2018-07-19T10:48:01.778Z,81.9013
2018-07-19T10:49:06.602Z,82.1523
2018-07-19T10:50:11.467Z,82.4034
2018-07-19T10:51:16.438Z,82.5698
2018-07-19T10:52:21.861Z,82.7389
2018-07-19T10:53:27.288Z,82.1523
2018-07-19T10:54:32.192Z,82.5698
2018-07-19T10:55:37.627Z,82.1523
2018-07-19T10:56:42.784Z,82.5698
2018-07-19T10:57:48.496Z,82.7389
2018-07-19T10:58:53.366Z,82.1523
2018-07-19T10:59:58.792Z,82.7389
2018-07-19T11:01:03.944Z,82.5698
2018-07-19T11:02:08.867Z,82.3188
2018-07-19T11:03:14.292Z,82.99
2018-07-19T11:04:20.152Z,82.5698
2018-07-19T11:05:25.650Z,82.3188
2018-07-19T11:06:30.749Z,82.0678
2018-07-19T11:07:36.216Z,82.99
2018-07-19T11:08:41.738Z,82.5698
2018-07-19T11:09:48.020Z,83.4946
2018-07-19T11:10:53.679Z,82.99
2018-07-19T11:11:58.874Z,82.99
2018-07-19T11:13:04.016Z,82.99
2018-07-19T11:14:09.444Z,83.7457
2018-07-19T11:15:14.654Z,83.4946
2018-07-19T11:16:20.332Z,84.2504
2018-07-19T11:17:25.789Z,84.5014
2018-07-19T11:18:31.193Z,84.9215
2018-07-19T11:19:35.774Z,84.5014
2018-07-19T11:20:41.224Z,84.6678
2018-07-19T11:21:46.946Z,84.9215
2018-07-19T11:22:51.816Z,84.6678
2018-07-19T11:23:56.399Z,84.6678
2018-07-19T11:25:02.145Z,84.5014
2018-07-19T11:26:06.687Z,85.4235
2018-07-19T11:27:11.611Z,84.5014
2018-07-19T11:28:17.442Z,84.9215
2018-07-19T11:29:22.346Z,84.6678
2018-07-19T11:30:28.319Z,84.9215
2018-07-19T11:31:34.666Z,85.1725
2018-07-19T11:32:39.824Z,84.9215
2018-07-19T11:33:45.523Z,85.4235
2018-07-19T11:34:50.994Z,85.4235
2018-07-19T11:35:56.290Z,85.1725
2018-07-19T11:37:01.599Z,85.6772
2018-07-19T11:38:07.024Z,85.6772
2018-07-19T11:39:12.179Z,85.9282
2018-07-19T11:40:17.877Z,85.6772
2018-07-19T11:41:23.304Z,85.1725
2018-07-19T11:42:28.911Z,85.4235
2018-07-19T11:43:34.338Z,86.6839
2018-07-19T11:44:39.565Z,85.1725
2018-07-19T11:45:45.070Z,85.4235
2018-07-19T11:46:50.554Z,86.4303
2018-07-19T11:47:55.447Z,86.4303
2018-07-19T11:49:00.957Z,86.7658
2018-07-19T11:50:05.957Z,85.4235
2018-07-19T11:51:11.166Z,86.1792
2018-07-19T11:52:16.759Z,86.6839
2018-07-19T11:53:21.823Z,87.0195
2018-07-19T11:54:42.199Z,86.4303
2018-07-19T11:55:47.453Z,86.4303
2018-07-19T11:56:52.599Z,86.7658
2018-07-19T11:57:57.779Z,86.4303
2018-07-19T11:59:02.819Z,87.2705
2018-07-19T12:00:07.413Z,86.1792
2018-07-19T12:01:12.251Z,87.5215
2018-07-19T12:02:17.389Z,87.2705
2018-07-19T12:03:22.866Z,86.4303
2018-07-19T12:04:28.346Z,87.2705
2018-07-19T12:05:33.857Z,86.7658
2018-07-19T12:06:39.266Z,87.7752
2018-07-19T12:07:44.419Z,87.2705
2018-07-19T12:08:50.074Z,87.5215
2018-07-19T12:09:55.202Z,88.2772
2018-07-19T12:11:00.751Z,87.5215
2018-07-19T12:12:05.677Z,88.2772
2018-07-19T12:13:11.209Z,88.2772
2018-07-19T12:14:16.366Z,88.2772
2018-07-19T12:15:21.867Z,87.0195
2018-07-19T12:16:42.377Z,87.5215
2018-07-19T12:17:47.253Z,87.7752
2018-07-19T12:18:52.118Z,87.7752
2018-07-19T12:19:57.279Z,87.5215
2018-07-19T12:21:01.563Z,87.2705
2018-07-19T12:22:06.349Z,88.0262
2018-07-19T12:23:11.786Z,87.5215
2018-07-19T12:24:17.211Z,88.0262
2018-07-19T12:25:22.921Z,88.2772
2018-07-19T12:26:28.351Z,88.2772
2018-07-19T12:27:33.855Z,88.2772
2018-07-19T12:28:38.783Z,88.2772
2018-07-19T12:29:43.970Z,88.7819
2018-07-19T12:30:49.463Z,88.5309
2018-07-19T12:31:54.613Z,88.7819
2018-07-19T12:32:59.484Z,89.2021
2018-07-19T12:34:04.976Z,88.951
2018-07-19T12:35:10.127Z,88.7819
2018-07-19T12:36:15.591Z,88.951
2018-07-19T12:37:20.685Z,89.2021
2018-07-19T12:38:25.959Z,88.7819
2018-07-19T12:39:31.511Z,88.951
2018-07-19T12:40:36.372Z,89.7041
2018-07-19T12:41:41.301Z,88.951
2018-07-19T12:42:47.017Z,89.2021
2018-07-19T12:43:52.440Z,88.951
2018-07-19T12:44:57.855Z,89.4531
2018-07-19T12:46:03.292Z,88.7819
2018-07-19T12:47:08.771Z,89.7041
2018-07-19T12:48:13.636Z,89.9578
2018-07-19T12:49:19.064Z,89.9578
2018-07-19T12:50:24.285Z,90.7135
2018-07-19T12:51:29.215Z,88.951
2018-07-19T12:52:34.655Z,89.7041
2018-07-19T12:53:39.902Z,89.4531
2018-07-19T12:54:45.300Z,89.9578
2018-07-19T12:55:50.366Z,91.2181
2018-07-19T12:56:55.681Z,90.4624
2018-07-19T12:58:01.366Z,90.4624
2018-07-19T12:59:06.451Z,89.7041
2018-07-19T13:00:12.245Z,90.2088
2018-07-19T13:01:17.969Z,89.9578
2018-07-19T13:02:23.396Z,90.2088
2018-07-19T13:03:29.257Z,89.4531
2018-07-19T13:04:34.421Z,89.9578
2018-07-19T13:05:39.853Z,89.7041
2018-07-19T13:06:44.412Z,89.2021
2018-07-19T13:07:49.587Z,89.7041
2018-07-19T13:08:54.784Z,89.7041
2018-07-19T13:10:00.700Z,89.2021
2018-07-19T13:11:05.315Z,89.4531
2018-07-19T13:12:10.774Z,89.4531
2018-07-19T13:13:16.655Z,89.9578
2018-07-19T13:14:22.114Z,90.4624
2018-07-19T13:15:41.885Z,89.9578
2018-07-19T13:16:47.067Z,90.9645
2018-07-19T13:17:52.228Z,90.7135
2018-07-19T13:18:57.904Z,90.7135
2018-07-19T13:20:02.880Z,91.2181
2018-07-19T13:21:08.028Z,90.2088
2018-07-19T13:22:13.791Z,90.7135
2018-07-19T13:23:19.136Z,90.2088
2018-07-19T13:25:44.368Z,90.9645